sensor_id;sensor_type;location;lat;lon;timestamp;temperature;humidity
530;DHT22;251;48.704;9.210;2022-09-20T00:01:29;7.40;82.50
530;DHT22;251;48.704;9.210;2022-09-20T00:03:58;7.60;84.30
530;DHT22;251;48.704;9.210;2022-09-20T00:06:26;7.50;84.40
530;DHT22;251;48.704;9.210;2022-09-20T00:08:53;7.60;85.10
530;DHT22;251;48.704;9.210;2022-09-20T00:11:23;7.70;87.20
530;DHT22;251;48.704;9.210;2022-09-20T00:13:52;7.60;89.00
530;DHT22;251;48.704;9.210;2022-09-20T00:16:24;7.40;89.00
530;DHT22;251;48.704;9.210;2022-09-20T00:18:53;7.50;90.50
530;DHT22;251;48.704;9.210;2022-09-20T00:21:23;7.50;91.00
530;DHT22;251;48.704;9.210;2022-09-20T00:23:51;7.50;90.70
530;DHT22;251;48.704;9.210;2022-09-20T00:26:19;7.50;92.30
530;DHT22;251;48.704;9.210;2022-09-20T00:28:46;7.50;90.80
530;DHT22;251;48.704;9.210;2022-09-20T00:31:13;7.50;90.00
530;DHT22;251;48.704;9.210;2022-09-20T00:33:42;7.50;89.70
530;DHT22;251;48.704;9.210;2022-09-20T00:36:26;7.40;88.10
530;DHT22;251;48.704;9.210;2022-09-20T00:38:54;7.50;89.30
530;DHT22;251;48.704;9.210;2022-09-20T00:41:21;7.40;91.30
530;DHT22;251;48.704;9.210;2022-09-20T00:43:48;7.50;91.20
530;DHT22;251;48.704;9.210;2022-09-20T00:46:20;7.40;89.50
530;DHT22;251;48.704;9.210;2022-09-20T00:48:50;7.40;91.30
530;DHT22;251;48.704;9.210;2022-09-20T00:51:24;7.40;92.30
530;DHT22;251;48.704;9.210;2022-09-20T00:53:55;7.40;91.80
530;DHT22;251;48.704;9.210;2022-09-20T00:56:25;7.50;92.20
530;DHT22;251;48.704;9.210;2022-09-20T00:58:58;7.50;93.20
530;DHT22;251;48.704;9.210;2022-09-20T01:01:27;7.50;93.50
530;DHT22;251;48.704;9.210;2022-09-20T01:03:56;7.90;94.10
530;DHT22;251;48.704;9.210;2022-09-20T01:06:23;7.50;93.00
530;DHT22;251;48.704;9.210;2022-09-20T01:08:51;7.50;93.90
530;DHT22;251;48.704;9.210;2022-09-20T01:11:19;8.00;93.20
530;DHT22;251;48.704;9.210;2022-09-20T01:13:46;7.50;92.40
530;DHT22;251;48.704;9.210;2022-09-20T01:16:14;7.60;91.30
530;DHT22;251;48.704;9.210;2022-09-20T01:18:42;7.50;90.60
530;DHT22;251;48.704;9.210;2022-09-20T01:21:12;7.90;91.40
530;DHT22;251;48.704;9.210;2022-09-20T01:23:46;7.50;89.80
530;DHT22;251;48.704;9.210;2022-09-20T01:26:42;7.50;86.30
530;DHT22;251;48.704;9.210;2022-09-20T01:29:24;7.40;87.60
530;DHT22;251;48.704;9.210;2022-09-20T01:31:56;7.50;87.60
530;DHT22;251;48.704;9.210;2022-09-20T01:38:25;7.60;86.40
530;DHT22;251;48.704;9.210;2022-09-20T01:41:00;7.50;88.80
530;DHT22;251;48.704;9.210;2022-09-20T01:43:33;7.40;90.20
530;DHT22;251;48.704;9.210;2022-09-20T01:46:09;7.50;91.80
530;DHT22;251;48.704;9.210;2022-09-20T01:48:41;7.40;92.60
530;DHT22;251;48.704;9.210;2022-09-20T01:51:30;7.50;93.50
530;DHT22;251;48.704;9.210;2022-09-20T01:54:23;7.40;93.40
530;DHT22;251;48.704;9.210;2022-09-20T02:00:06;7.50;94.50
530;DHT22;251;48.704;9.210;2022-09-20T02:12:15;7.40;93.80
530;DHT22;251;48.704;9.210;2022-09-20T02:14:52;7.50;93.20
530;DHT22;251;48.704;9.210;2022-09-20T02:17:26;7.50;94.10
530;DHT22;251;48.704;9.210;2022-09-20T02:20:03;7.50;93.40
530;DHT22;251;48.704;9.210;2022-09-20T02:22:59;7.50;92.70
530;DHT22;251;48.704;9.210;2022-09-20T02:25:52;7.50;93.00
530;DHT22;251;48.704;9.210;2022-09-20T02:28:28;7.50;93.80
530;DHT22;251;48.704;9.210;2022-09-20T02:31:06;7.50;94.00
530;DHT22;251;48.704;9.210;2022-09-20T02:33:56;7.40;93.10
530;DHT22;251;48.704;9.210;2022-09-20T02:36:36;7.60;96.50
530;DHT22;251;48.704;9.210;2022-09-20T02:39:10;7.50;97.00
530;DHT22;251;48.704;9.210;2022-09-20T02:41:54;7.40;97.70
530;DHT22;251;48.704;9.210;2022-09-20T02:44:33;7.60;97.80
530;DHT22;251;48.704;9.210;2022-09-20T02:47:11;7.40;97.30
530;DHT22;251;48.704;9.210;2022-09-20T02:49:46;7.50;96.80
530;DHT22;251;48.704;9.210;2022-09-20T02:52:24;7.40;97.60
530;DHT22;251;48.704;9.210;2022-09-20T02:54:59;7.40;98.30
530;DHT22;251;48.704;9.210;2022-09-20T02:57:36;7.40;98.10
530;DHT22;251;48.704;9.210;2022-09-20T03:00:12;7.50;98.50
530;DHT22;251;48.704;9.210;2022-09-20T03:02:47;7.50;99.60
530;DHT22;251;48.704;9.210;2022-09-20T03:05:21;7.90;99.90
530;DHT22;251;48.704;9.210;2022-09-20T03:08:09;8.00;99.90
530;DHT22;251;48.704;9.210;2022-09-20T03:10:46;7.80;99.90
530;DHT22;251;48.704;9.210;2022-09-20T03:13:25;7.80;99.90
530;DHT22;251;48.704;9.210;2022-09-20T03:16:00;7.80;99.90
530;DHT22;251;48.704;9.210;2022-09-20T03:18:40;7.80;99.90
530;DHT22;251;48.704;9.210;2022-09-20T03:21:19;7.70;99.90
530;DHT22;251;48.704;9.210;2022-09-20T03:23:56;7.90;99.90
530;DHT22;251;48.704;9.210;2022-09-20T03:26:36;7.90;99.90
530;DHT22;251;48.704;9.210;2022-09-20T03:29:14;8.00;99.90
530;DHT22;251;48.704;9.210;2022-09-20T03:31:58;7.90;99.90
530;DHT22;251;48.704;9.210;2022-09-20T03:34:38;7.80;99.90
530;DHT22;251;48.704;9.210;2022-09-20T03:37:19;7.80;99.90
530;DHT22;251;48.704;9.210;2022-09-20T03:40:05;7.90;99.90
530;DHT22;251;48.704;9.210;2022-09-20T03:42:45;8.20;99.90
530;DHT22;251;48.704;9.210;2022-09-20T03:45:39;8.30;99.90
530;DHT22;251;48.704;9.210;2022-09-20T03:48:29;7.80;99.90
530;DHT22;251;48.704;9.210;2022-09-20T03:51:14;7.80;99.90
530;DHT22;251;48.704;9.210;2022-09-20T03:54:19;8.30;99.90
530;DHT22;251;48.704;9.210;2022-09-20T03:57:27;8.20;99.90
530;DHT22;251;48.704;9.210;2022-09-20T04:00:11;8.10;99.90
530;DHT22;251;48.704;9.210;2022-09-20T04:02:57;8.20;99.90
530;DHT22;251;48.704;9.210;2022-09-20T04:05:34;8.30;99.90
530;DHT22;251;48.704;9.210;2022-09-20T04:08:10;7.80;99.90
530;DHT22;251;48.704;9.210;2022-09-20T04:10:48;7.80;99.90
530;DHT22;251;48.704;9.210;2022-09-20T04:13:33;7.90;99.90
530;DHT22;251;48.704;9.210;2022-09-20T04:16:13;8.20;99.90
530;DHT22;251;48.704;9.210;2022-09-20T04:18:49;8.10;99.90
530;DHT22;251;48.704;9.210;2022-09-20T04:21:26;8.20;99.90
530;DHT22;251;48.704;9.210;2022-09-20T04:23:59;8.40;99.90
530;DHT22;251;48.704;9.210;2022-09-20T04:26:30;8.10;99.90
530;DHT22;251;48.704;9.210;2022-09-20T04:29:12;8.30;99.90
530;DHT22;251;48.704;9.210;2022-09-20T04:31:46;8.20;99.90
530;DHT22;251;48.704;9.210;2022-09-20T04:34:18;8.40;99.90
530;DHT22;251;48.704;9.210;2022-09-20T04:36:58;8.40;99.90
530;DHT22;251;48.704;9.210;2022-09-20T04:39:36;8.40;99.90
530;DHT22;251;48.704;9.210;2022-09-20T04:51:35;8.30;99.90
530;DHT22;251;48.704;9.210;2022-09-20T04:54:45;8.20;99.90
530;DHT22;251;48.704;9.210;2022-09-20T04:57:47;8.30;99.90
530;DHT22;251;48.704;9.210;2022-09-20T05:00:19;8.20;99.90
530;DHT22;251;48.704;9.210;2022-09-20T05:06:12;8.20;99.90
530;DHT22;251;48.704;9.210;2022-09-20T05:12:14;8.20;99.90
530;DHT22;251;48.704;9.210;2022-09-20T05:14:59;8.20;99.90
530;DHT22;251;48.704;9.210;2022-09-20T05:17:37;8.30;99.90
530;DHT22;251;48.704;9.210;2022-09-20T05:20:32;8.20;99.90
530;DHT22;251;48.704;9.210;2022-09-20T05:23:26;8.60;99.90
530;DHT22;251;48.704;9.210;2022-09-20T05:26:05;8.20;99.90
530;DHT22;251;48.704;9.210;2022-09-20T05:28:38;8.60;99.90
530;DHT22;251;48.704;9.210;2022-09-20T05:31:12;8.20;99.90
530;DHT22;251;48.704;9.210;2022-09-20T05:33:46;8.50;99.90
530;DHT22;251;48.704;9.210;2022-09-20T05:36:22;8.40;99.90
530;DHT22;251;48.704;9.210;2022-09-20T05:38:57;8.20;99.90
530;DHT22;251;48.704;9.210;2022-09-20T05:41:32;8.50;99.90
530;DHT22;251;48.704;9.210;2022-09-20T05:44:10;8.60;99.90
530;DHT22;251;48.704;9.210;2022-09-20T05:46:52;8.60;99.90
530;DHT22;251;48.704;9.210;2022-09-20T05:49:37;8.60;99.90
530;DHT22;251;48.704;9.210;2022-09-20T05:52:22;8.40;99.90
530;DHT22;251;48.704;9.210;2022-09-20T05:58:15;8.60;99.90
530;DHT22;251;48.704;9.210;2022-09-20T06:00:51;8.60;99.90
530;DHT22;251;48.704;9.210;2022-09-20T06:03:26;8.70;99.90
530;DHT22;251;48.704;9.210;2022-09-20T06:10:04;8.70;99.90
530;DHT22;251;48.704;9.210;2022-09-20T06:12:46;8.70;99.90
530;DHT22;251;48.704;9.210;2022-09-20T06:15:21;8.70;99.90
530;DHT22;251;48.704;9.210;2022-09-20T06:21:42;8.70;99.90
530;DHT22;251;48.704;9.210;2022-09-20T06:24:24;8.60;99.90
530;DHT22;251;48.704;9.210;2022-09-20T06:26:54;8.60;99.90
530;DHT22;251;48.704;9.210;2022-09-20T06:33:15;8.80;99.90
530;DHT22;251;48.704;9.210;2022-09-20T06:35:46;8.80;99.90
530;DHT22;251;48.704;9.210;2022-09-20T06:38:31;8.80;99.90
530;DHT22;251;48.704;9.210;2022-09-20T06:41:18;8.90;99.90
530;DHT22;251;48.704;9.210;2022-09-20T06:43:55;9.10;99.90
530;DHT22;251;48.704;9.210;2022-09-20T06:46:25;9.00;99.90
530;DHT22;251;48.704;9.210;2022-09-20T06:48:54;9.20;99.90
530;DHT22;251;48.704;9.210;2022-09-20T06:51:23;9.20;99.90
530;DHT22;251;48.704;9.210;2022-09-20T06:53:51;9.10;99.90
530;DHT22;251;48.704;9.210;2022-09-20T06:56:21;9.10;99.90
530;DHT22;251;48.704;9.210;2022-09-20T06:58:49;9.10;99.90
530;DHT22;251;48.704;9.210;2022-09-20T07:01:17;9.10;99.90
530;DHT22;251;48.704;9.210;2022-09-20T07:03:44;9.10;99.90
530;DHT22;251;48.704;9.210;2022-09-20T07:06:12;9.30;99.90
530;DHT22;251;48.704;9.210;2022-09-20T07:08:44;9.50;99.90
530;DHT22;251;48.704;9.210;2022-09-20T07:11:13;9.50;99.90
530;DHT22;251;48.704;9.210;2022-09-20T07:13:41;9.20;99.90
530;DHT22;251;48.704;9.210;2022-09-20T07:16:11;9.50;99.90
530;DHT22;251;48.704;9.210;2022-09-20T07:18:38;9.50;99.90
530;DHT22;251;48.704;9.210;2022-09-20T07:21:06;9.50;99.90
530;DHT22;251;48.704;9.210;2022-09-20T07:23:35;9.60;99.90
530;DHT22;251;48.704;9.210;2022-09-20T07:26:02;9.60;99.90
530;DHT22;251;48.704;9.210;2022-09-20T07:28:30;9.60;99.90
530;DHT22;251;48.704;9.210;2022-09-20T07:30:57;9.50;99.90
530;DHT22;251;48.704;9.210;2022-09-20T07:33:24;9.70;99.90
530;DHT22;251;48.704;9.210;2022-09-20T07:35:52;9.90;99.90
530;DHT22;251;48.704;9.210;2022-09-20T07:38:20;9.80;99.90
530;DHT22;251;48.704;9.210;2022-09-20T07:40:55;9.70;99.90
530;DHT22;251;48.704;9.210;2022-09-20T07:43:22;9.90;99.90
530;DHT22;251;48.704;9.210;2022-09-20T07:45:49;9.90;99.90
530;DHT22;251;48.704;9.210;2022-09-20T07:48:20;9.90;99.90
530;DHT22;251;48.704;9.210;2022-09-20T07:50:49;9.80;99.90
530;DHT22;251;48.704;9.210;2022-09-20T07:53:16;10.10;99.90
530;DHT22;251;48.704;9.210;2022-09-20T07:55:43;9.90;99.90
530;DHT22;251;48.704;9.210;2022-09-20T07:58:22;10.00;99.90
530;DHT22;251;48.704;9.210;2022-09-20T08:00:51;9.80;99.90
530;DHT22;251;48.704;9.210;2022-09-20T08:03:18;10.00;99.90
530;DHT22;251;48.704;9.210;2022-09-20T08:05:44;9.90;98.30
530;DHT22;251;48.704;9.210;2022-09-20T08:08:11;10.10;99.90
530;DHT22;251;48.704;9.210;2022-09-20T08:10:38;10.10;99.90
530;DHT22;251;48.704;9.210;2022-09-20T08:13:06;10.00;96.30
530;DHT22;251;48.704;9.210;2022-09-20T08:15:34;10.10;96.30
530;DHT22;251;48.704;9.210;2022-09-20T08:18:01;10.20;95.50
530;DHT22;251;48.704;9.210;2022-09-20T08:20:27;10.20;95.00
530;DHT22;251;48.704;9.210;2022-09-20T08:22:56;10.50;78.60
530;DHT22;251;48.704;9.210;2022-09-20T08:25:23;10.20;73.60
530;DHT22;251;48.704;9.210;2022-09-20T08:27:51;10.30;64.40
530;DHT22;251;48.704;9.210;2022-09-20T08:30:18;10.20;68.70
530;DHT22;251;48.704;9.210;2022-09-20T08:32:46;10.20;78.50
530;DHT22;251;48.704;9.210;2022-09-20T08:35:13;10.10;82.30
530;DHT22;251;48.704;9.210;2022-09-20T08:37:40;10.40;86.60
530;DHT22;251;48.704;9.210;2022-09-20T08:40:11;10.50;78.30
530;DHT22;251;48.704;9.210;2022-09-20T08:42:41;10.50;77.60
530;DHT22;251;48.704;9.210;2022-09-20T08:45:12;10.40;65.40
530;DHT22;251;48.704;9.210;2022-09-20T08:47:45;10.30;66.90
530;DHT22;251;48.704;9.210;2022-09-20T08:50:15;10.60;67.80
530;DHT22;251;48.704;9.210;2022-09-20T08:52:45;10.50;64.50
530;DHT22;251;48.704;9.210;2022-09-20T08:55:15;10.60;61.50
530;DHT22;251;48.704;9.210;2022-09-20T08:57:43;10.50;47.20
530;DHT22;251;48.704;9.210;2022-09-20T09:00:16;10.30;53.00
530;DHT22;251;48.704;9.210;2022-09-20T09:02:43;10.60;46.40
530;DHT22;251;48.704;9.210;2022-09-20T09:05:33;10.50;49.30
530;DHT22;251;48.704;9.210;2022-09-20T09:12:02;10.70;41.70
530;DHT22;251;48.704;9.210;2022-09-20T09:14:31;10.60;48.40
530;DHT22;251;48.704;9.210;2022-09-20T09:17:21;11.00;42.40
530;DHT22;251;48.704;9.210;2022-09-20T09:19:50;10.90;46.20
530;DHT22;251;48.704;9.210;2022-09-20T09:22:20;10.70;44.60
530;DHT22;251;48.704;9.210;2022-09-20T09:28:37;10.90;37.60
530;DHT22;251;48.704;9.210;2022-09-20T09:31:12;10.70;39.90
530;DHT22;251;48.704;9.210;2022-09-20T09:33:42;11.30;38.90
530;DHT22;251;48.704;9.210;2022-09-20T09:36:13;11.20;43.20
530;DHT22;251;48.704;9.210;2022-09-20T09:38:44;11.20;41.30
530;DHT22;251;48.704;9.210;2022-09-20T09:41:23;11.00;35.80
530;DHT22;251;48.704;9.210;2022-09-20T09:43:58;11.00;39.00
530;DHT22;251;48.704;9.210;2022-09-20T09:46:29;11.00;41.40
530;DHT22;251;48.704;9.210;2022-09-20T09:49:06;11.10;39.50
530;DHT22;251;48.704;9.210;2022-09-20T09:51:33;10.70;40.10
530;DHT22;251;48.704;9.210;2022-09-20T09:54:03;10.60;39.80
530;DHT22;251;48.704;9.210;2022-09-20T09:56:44;10.90;41.00
530;DHT22;251;48.704;9.210;2022-09-20T09:59:27;11.00;45.30
530;DHT22;251;48.704;9.210;2022-09-20T10:02:01;11.00;42.30
530;DHT22;251;48.704;9.210;2022-09-20T10:04:33;11.20;40.70
530;DHT22;251;48.704;9.210;2022-09-20T10:07:08;11.00;40.90
530;DHT22;251;48.704;9.210;2022-09-20T10:09:53;11.20;37.10
530;DHT22;251;48.704;9.210;2022-09-20T10:12:41;11.30;37.60
530;DHT22;251;48.704;9.210;2022-09-20T10:15:25;11.10;35.80
530;DHT22;251;48.704;9.210;2022-09-20T10:18:06;11.30;37.80
530;DHT22;251;48.704;9.210;2022-09-20T10:23:33;11.30;39.80
530;DHT22;251;48.704;9.210;2022-09-20T10:26:16;11.30;38.40
530;DHT22;251;48.704;9.210;2022-09-20T10:28:53;11.30;38.30
530;DHT22;251;48.704;9.210;2022-09-20T10:31:35;11.00;38.00
530;DHT22;251;48.704;9.210;2022-09-20T10:34:23;11.00;38.70
530;DHT22;251;48.704;9.210;2022-09-20T10:36:56;11.20;34.60
530;DHT22;251;48.704;9.210;2022-09-20T10:39:28;11.20;39.10
530;DHT22;251;48.704;9.210;2022-09-20T10:42:06;11.40;36.10
530;DHT22;251;48.704;9.210;2022-09-20T10:45:05;11.20;35.30
530;DHT22;251;48.704;9.210;2022-09-20T10:47:40;11.40;32.30
530;DHT22;251;48.704;9.210;2022-09-20T10:50:19;11.70;34.60
530;DHT22;251;48.704;9.210;2022-09-20T10:53:04;11.70;29.70
530;DHT22;251;48.704;9.210;2022-09-20T10:55:38;11.60;32.40
530;DHT22;251;48.704;9.210;2022-09-20T10:58:31;11.70;31.10
530;DHT22;251;48.704;9.210;2022-09-20T11:01:04;12.00;31.00
530;DHT22;251;48.704;9.210;2022-09-20T11:03:52;12.10;27.40
530;DHT22;251;48.704;9.210;2022-09-20T11:06:25;12.00;27.60
530;DHT22;251;48.704;9.210;2022-09-20T11:08:59;12.10;26.40
530;DHT22;251;48.704;9.210;2022-09-20T11:11:30;12.10;26.60
530;DHT22;251;48.704;9.210;2022-09-20T11:14:03;12.00;25.70
530;DHT22;251;48.704;9.210;2022-09-20T11:16:35;12.00;26.10
530;DHT22;251;48.704;9.210;2022-09-20T11:19:13;11.90;27.20
530;DHT22;251;48.704;9.210;2022-09-20T11:21:47;12.10;26.80
530;DHT22;251;48.704;9.210;2022-09-20T11:24:24;11.90;26.50
530;DHT22;251;48.704;9.210;2022-09-20T11:26:55;12.00;27.60
530;DHT22;251;48.704;9.210;2022-09-20T11:29:29;12.10;27.80
530;DHT22;251;48.704;9.210;2022-09-20T11:32:04;12.10;27.70
530;DHT22;251;48.704;9.210;2022-09-20T11:34:38;12.20;25.70
530;DHT22;251;48.704;9.210;2022-09-20T11:37:07;12.30;24.10
530;DHT22;251;48.704;9.210;2022-09-20T11:39:38;12.50;26.40
530;DHT22;251;48.704;9.210;2022-09-20T11:42:10;12.60;22.70
530;DHT22;251;48.704;9.210;2022-09-20T11:44:42;12.80;23.30
530;DHT22;251;48.704;9.210;2022-09-20T11:47:13;13.00;20.90
530;DHT22;251;48.704;9.210;2022-09-20T11:50:01;13.30;19.00
530;DHT22;251;48.704;9.210;2022-09-20T11:52:45;13.10;17.00
530;DHT22;251;48.704;9.210;2022-09-20T11:55:21;13.20;18.10
530;DHT22;251;48.704;9.210;2022-09-20T11:57:59;13.10;17.00
530;DHT22;251;48.704;9.210;2022-09-20T12:00:30;13.20;17.70
530;DHT22;251;48.704;9.210;2022-09-20T12:02:58;13.40;17.60
530;DHT22;251;48.704;9.210;2022-09-20T12:05:29;13.40;17.80
530;DHT22;251;48.704;9.210;2022-09-20T12:07:59;13.60;19.60
530;DHT22;251;48.704;9.210;2022-09-20T12:10:29;13.30;18.20
530;DHT22;251;48.704;9.210;2022-09-20T12:13:00;13.20;16.30
530;DHT22;251;48.704;9.210;2022-09-20T12:15:32;13.40;19.50
530;DHT22;251;48.704;9.210;2022-09-20T12:18:12;13.20;17.50
530;DHT22;251;48.704;9.210;2022-09-20T12:21:04;13.30;15.50
530;DHT22;251;48.704;9.210;2022-09-20T12:26:46;13.20;16.40
530;DHT22;251;48.704;9.210;2022-09-20T12:38:48;13.00;15.00
530;DHT22;251;48.704;9.210;2022-09-20T12:41:18;13.40;15.20
530;DHT22;251;48.704;9.210;2022-09-20T12:44:05;13.60;12.50
530;DHT22;251;48.704;9.210;2022-09-20T12:46:36;13.70;11.70
530;DHT22;251;48.704;9.210;2022-09-20T12:49:36;13.60;13.10
530;DHT22;251;48.704;9.210;2022-09-20T12:52:25;13.90;11.80
530;DHT22;251;48.704;9.210;2022-09-20T12:55:12;14.00;11.60
530;DHT22;251;48.704;9.210;2022-09-20T12:57:52;13.80;12.80
530;DHT22;251;48.704;9.210;2022-09-20T13:00:31;14.10;11.80
530;DHT22;251;48.704;9.210;2022-09-20T13:03:10;14.10;10.70
530;DHT22;251;48.704;9.210;2022-09-20T13:05:40;14.00;10.70
530;DHT22;251;48.704;9.210;2022-09-20T13:08:14;14.00;11.60
530;DHT22;251;48.704;9.210;2022-09-20T13:10:46;14.10;9.20
530;DHT22;251;48.704;9.210;2022-09-20T13:13:24;14.20;11.70
530;DHT22;251;48.704;9.210;2022-09-20T13:15:53;14.20;10.50
530;DHT22;251;48.704;9.210;2022-09-20T13:18:21;14.10;11.20
530;DHT22;251;48.704;9.210;2022-09-20T13:20:51;13.90;11.80
530;DHT22;251;48.704;9.210;2022-09-20T13:23:22;14.10;11.90
530;DHT22;251;48.704;9.210;2022-09-20T13:25:50;14.00;14.00
530;DHT22;251;48.704;9.210;2022-09-20T13:28:31;14.20;12.00
530;DHT22;251;48.704;9.210;2022-09-20T13:31:24;14.20;14.60
530;DHT22;251;48.704;9.210;2022-09-20T13:33:52;14.10;12.60
530;DHT22;251;48.704;9.210;2022-09-20T13:36:25;14.20;13.40
530;DHT22;251;48.704;9.210;2022-09-20T13:39:18;14.00;12.90
530;DHT22;251;48.704;9.210;2022-09-20T13:42:28;13.90;13.20
530;DHT22;251;48.704;9.210;2022-09-20T13:44:56;14.00;11.90
530;DHT22;251;48.704;9.210;2022-09-20T13:47:26;14.20;12.20
530;DHT22;251;48.704;9.210;2022-09-20T13:49:59;14.00;12.60
530;DHT22;251;48.704;9.210;2022-09-20T13:52:30;14.00;13.70
530;DHT22;251;48.704;9.210;2022-09-20T13:54:57;13.90;13.90
530;DHT22;251;48.704;9.210;2022-09-20T13:57:26;13.90;12.50
530;DHT22;251;48.704;9.210;2022-09-20T13:59:55;14.00;13.50
530;DHT22;251;48.704;9.210;2022-09-20T14:02:25;14.00;13.40
530;DHT22;251;48.704;9.210;2022-09-20T14:04:54;13.80;13.90
530;DHT22;251;48.704;9.210;2022-09-20T14:07:21;13.70;13.50
530;DHT22;251;48.704;9.210;2022-09-20T14:09:53;14.00;14.40
530;DHT22;251;48.704;9.210;2022-09-20T14:12:22;13.90;14.60
530;DHT22;251;48.704;9.210;2022-09-20T14:14:50;13.70;16.00
530;DHT22;251;48.704;9.210;2022-09-20T14:17:20;13.80;15.60
530;DHT22;251;48.704;9.210;2022-09-20T14:19:50;13.80;15.60
530;DHT22;251;48.704;9.210;2022-09-20T14:22:21;13.70;15.70
530;DHT22;251;48.704;9.210;2022-09-20T14:24:59;13.70;15.80
530;DHT22;251;48.704;9.210;2022-09-20T14:27:26;13.60;16.00
530;DHT22;251;48.704;9.210;2022-09-20T14:29:55;13.60;16.40
530;DHT22;251;48.704;9.210;2022-09-20T14:32:49;13.70;16.40
530;DHT22;251;48.704;9.210;2022-09-20T14:35:19;13.20;18.00
530;DHT22;251;48.704;9.210;2022-09-20T14:37:48;13.40;18.20
530;DHT22;251;48.704;9.210;2022-09-20T14:40:20;13.10;18.20
530;DHT22;251;48.704;9.210;2022-09-20T14:42:51;13.20;19.50
530;DHT22;251;48.704;9.210;2022-09-20T14:45:21;13.20;18.50
530;DHT22;251;48.704;9.210;2022-09-20T14:47:57;13.00;17.80
530;DHT22;251;48.704;9.210;2022-09-20T14:50:27;13.10;18.10
530;DHT22;251;48.704;9.210;2022-09-20T14:56:05;12.80;16.50
530;DHT22;251;48.704;9.210;2022-09-20T14:59:03;13.00;18.60
530;DHT22;251;48.704;9.210;2022-09-20T15:01:31;13.10;20.10
530;DHT22;251;48.704;9.210;2022-09-20T15:03:58;13.20;17.50
530;DHT22;251;48.704;9.210;2022-09-20T15:06:25;12.60;18.80
530;DHT22;251;48.704;9.210;2022-09-20T15:08:52;12.80;17.70
530;DHT22;251;48.704;9.210;2022-09-20T15:11:20;12.80;16.60
530;DHT22;251;48.704;9.210;2022-09-20T15:13:47;13.10;17.10
530;DHT22;251;48.704;9.210;2022-09-20T15:16:16;13.20;16.60
530;DHT22;251;48.704;9.210;2022-09-20T15:18:44;13.10;16.30
530;DHT22;251;48.704;9.210;2022-09-20T15:21:11;13.10;17.20
530;DHT22;251;48.704;9.210;2022-09-20T15:23:38;12.90;17.00
530;DHT22;251;48.704;9.210;2022-09-20T15:26:06;13.10;16.70
530;DHT22;251;48.704;9.210;2022-09-20T15:28:35;12.90;18.40
530;DHT22;251;48.704;9.210;2022-09-20T15:31:02;12.90;17.90
530;DHT22;251;48.704;9.210;2022-09-20T15:33:30;13.20;17.70
530;DHT22;251;48.704;9.210;2022-09-20T15:35:57;13.20;17.00
530;DHT22;251;48.704;9.210;2022-09-20T15:38:24;13.20;18.20
530;DHT22;251;48.704;9.210;2022-09-20T15:40:52;13.40;14.50
530;DHT22;251;48.704;9.210;2022-09-20T15:43:20;13.40;13.10
530;DHT22;251;48.704;9.210;2022-09-20T15:45:51;13.80;13.70
530;DHT22;251;48.704;9.210;2022-09-20T15:48:20;14.00;14.20
530;DHT22;251;48.704;9.210;2022-09-20T15:50:58;13.60;12.80
530;DHT22;251;48.704;9.210;2022-09-20T16:01:03;14.10;12.50
530;DHT22;251;48.704;9.210;2022-09-20T16:03:30;14.10;12.20
530;DHT22;251;48.704;9.210;2022-09-20T16:05:58;14.10;11.70
530;DHT22;251;48.704;9.210;2022-09-20T16:08:26;13.80;12.10
530;DHT22;251;48.704;9.210;2022-09-20T16:10:56;13.80;11.60
530;DHT22;251;48.704;9.210;2022-09-20T16:13:23;13.80;12.40
530;DHT22;251;48.704;9.210;2022-09-20T16:15:53;13.70;12.10
530;DHT22;251;48.704;9.210;2022-09-20T16:18:21;13.40;13.10
530;DHT22;251;48.704;9.210;2022-09-20T16:21:07;13.70;13.40
530;DHT22;251;48.704;9.210;2022-09-20T16:23:34;13.60;13.50
530;DHT22;251;48.704;9.210;2022-09-20T16:26:02;13.60;12.50
530;DHT22;251;48.704;9.210;2022-09-20T16:28:28;13.20;12.80
530;DHT22;251;48.704;9.210;2022-09-20T16:30:56;13.50;13.20
530;DHT22;251;48.704;9.210;2022-09-20T16:33:24;13.30;13.30
530;DHT22;251;48.704;9.210;2022-09-20T16:35:51;13.30;14.30
530;DHT22;251;48.704;9.210;2022-09-20T16:38:17;12.90;12.70
530;DHT22;251;48.704;9.210;2022-09-20T16:40:47;13.40;14.40
530;DHT22;251;48.704;9.210;2022-09-20T16:43:14;13.20;15.50
530;DHT22;251;48.704;9.210;2022-09-20T16:45:47;13.00;17.20
530;DHT22;251;48.704;9.210;2022-09-20T16:48:13;13.00;18.30
530;DHT22;251;48.704;9.210;2022-09-20T16:50:41;13.20;19.50
530;DHT22;251;48.704;9.210;2022-09-20T16:53:12;12.90;19.70
530;DHT22;251;48.704;9.210;2022-09-20T16:55:42;12.90;20.70
530;DHT22;251;48.704;9.210;2022-09-20T16:58:09;12.60;21.00
530;DHT22;251;48.704;9.210;2022-09-20T17:00:36;12.60;22.60
530;DHT22;251;48.704;9.210;2022-09-20T17:03:03;12.60;23.60
530;DHT22;251;48.704;9.210;2022-09-20T17:05:29;12.70;24.20
530;DHT22;251;48.704;9.210;2022-09-20T17:07:57;12.30;23.70
530;DHT22;251;48.704;9.210;2022-09-20T17:14:04;12.30;23.90
530;DHT22;251;48.704;9.210;2022-09-20T17:16:33;12.00;24.50
530;DHT22;251;48.704;9.210;2022-09-20T17:19:01;12.00;24.20
530;DHT22;251;48.704;9.210;2022-09-20T17:21:29;12.00;25.00
530;DHT22;251;48.704;9.210;2022-09-20T17:23:58;11.80;24.80
530;DHT22;251;48.704;9.210;2022-09-20T17:26:26;11.80;24.70
530;DHT22;251;48.704;9.210;2022-09-20T17:28:56;11.80;25.00
530;DHT22;251;48.704;9.210;2022-09-20T17:31:25;11.80;26.00
530;DHT22;251;48.704;9.210;2022-09-20T17:33:53;11.50;26.20
530;DHT22;251;48.704;9.210;2022-09-20T17:36:26;11.60;26.60
530;DHT22;251;48.704;9.210;2022-09-20T17:38:54;11.50;26.60
530;DHT22;251;48.704;9.210;2022-09-20T17:41:24;11.30;27.10
530;DHT22;251;48.704;9.210;2022-09-20T17:43:52;11.40;27.50
530;DHT22;251;48.704;9.210;2022-09-20T17:46:21;11.40;28.00
530;DHT22;251;48.704;9.210;2022-09-20T17:48:51;11.40;28.60
530;DHT22;251;48.704;9.210;2022-09-20T17:51:22;11.30;28.60
530;DHT22;251;48.704;9.210;2022-09-20T17:53:50;11.20;29.00
530;DHT22;251;48.704;9.210;2022-09-20T17:56:18;11.00;29.10
530;DHT22;251;48.704;9.210;2022-09-20T17:58:46;11.20;29.90
530;DHT22;251;48.704;9.210;2022-09-20T18:01:14;11.30;29.70
530;DHT22;251;48.704;9.210;2022-09-20T18:03:43;11.30;30.90
530;DHT22;251;48.704;9.210;2022-09-20T18:06:14;10.90;30.40
530;DHT22;251;48.704;9.210;2022-09-20T18:08:45;11.00;30.20
530;DHT22;251;48.704;9.210;2022-09-20T18:11:12;10.80;30.00
530;DHT22;251;48.704;9.210;2022-09-20T18:13:40;11.00;30.20
530;DHT22;251;48.704;9.210;2022-09-20T18:16:12;10.80;30.90
530;DHT22;251;48.704;9.210;2022-09-20T18:18:39;11.00;31.80
530;DHT22;251;48.704;9.210;2022-09-20T18:21:09;10.90;33.80
530;DHT22;251;48.704;9.210;2022-09-20T18:23:36;10.90;34.50
530;DHT22;251;48.704;9.210;2022-09-20T18:26:05;10.90;33.90
530;DHT22;251;48.704;9.210;2022-09-20T18:28:53;10.60;34.00
530;DHT22;251;48.704;9.210;2022-09-20T18:31:24;10.90;35.70
530;DHT22;251;48.704;9.210;2022-09-20T18:33:55;10.60;35.50
530;DHT22;251;48.704;9.210;2022-09-20T18:36:22;10.40;36.00
530;DHT22;251;48.704;9.210;2022-09-20T18:38:52;10.50;35.60
530;DHT22;251;48.704;9.210;2022-09-20T18:41:21;10.50;36.60
530;DHT22;251;48.704;9.210;2022-09-20T18:43:50;10.30;35.80
530;DHT22;251;48.704;9.210;2022-09-20T18:46:17;10.30;37.10
530;DHT22;251;48.704;9.210;2022-09-20T18:48:49;10.40;36.20
530;DHT22;251;48.704;9.210;2022-09-20T18:51:17;10.30;38.10